createdAt,value
2023-02-12T00:00:24.162Z,13.43
2023-02-12T00:02:57.522Z,12.05
2023-02-12T00:05:28.524Z,10.95
2023-02-12T00:07:59.209Z,11.25
2023-02-12T00:10:30.069Z,13.13
2023-02-12T00:13:00.884Z,12.60
2023-02-12T00:15:31.671Z,11.30
2023-02-12T00:18:05.084Z,12.70
2023-02-12T00:20:35.854Z,12.85
2023-02-12T00:23:06.956Z,10.68
2023-02-12T00:25:37.819Z,12.85
2023-02-12T00:28:08.705Z,9.68
2023-02-12T00:30:39.881Z,12.95
2023-02-12T00:33:13.353Z,12.57
2023-02-12T00:35:44.133Z,13.25
2023-02-12T00:38:14.858Z,13.63
2023-02-12T00:40:45.685Z,11.30
2023-02-12T00:43:16.564Z,13.00
2023-02-12T00:45:48.345Z,11.57
2023-02-12T00:48:21.877Z,13.70
2023-02-12T00:50:53.935Z,12.20
2023-02-12T00:53:25.027Z,11.27
2023-02-12T00:55:56.285Z,12.75
2023-02-12T00:58:27.302Z,11.93
2023-02-12T01:00:58.363Z,12.70
2023-02-12T01:03:31.906Z,13.70
2023-02-12T01:06:03.527Z,12.50
2023-02-12T01:08:34.437Z,14.30
2023-02-12T01:11:06.847Z,14.15
2023-02-12T01:13:38.666Z,14.68
2023-02-12T01:16:13.453Z,13.85
2023-02-12T01:18:47.354Z,13.45
2023-02-12T01:21:19.759Z,14.85
2023-02-12T01:23:51.986Z,15.50
2023-02-12T01:26:24.637Z,14.98
2023-02-12T01:28:57.142Z,16.50
2023-02-12T01:31:31.060Z,15.18
2023-02-12T01:34:04.939Z,16.05
2023-02-12T01:36:37.813Z,15.25
2023-02-12T01:39:09.875Z,15.63
2023-02-12T01:41:46.100Z,19.60
2023-02-12T01:44:21.379Z,19.23
2023-02-12T01:47:02.706Z,15.32
2023-02-12T01:49:40.107Z,21.48
2023-02-12T01:52:16.220Z,18.20
2023-02-12T01:54:47.282Z,20.33
2023-02-12T01:57:19.789Z,19.20
2023-02-12T01:59:54.977Z,22.27
2023-02-12T02:02:25.972Z,20.23
2023-02-12T02:05:03.470Z,22.35
2023-02-12T02:07:35.439Z,19.25
2023-02-12T02:10:09.432Z,22.45
2023-02-12T02:12:53.926Z,23.90
2023-02-12T02:15:24.918Z,23.70
2023-02-12T02:18:00.385Z,21.88
2023-02-12T02:21:02.405Z,28.23
2023-02-12T02:23:58.518Z,24.67
2023-02-12T02:26:50.236Z,23.83
2023-02-12T02:29:38.008Z,27.73
2023-02-12T02:32:16.909Z,26.13
2023-02-12T02:34:55.543Z,22.63
2023-02-12T02:37:34.712Z,26.73
2023-02-12T02:40:12.659Z,30.58
2023-02-12T02:42:50.738Z,26.92
2023-02-12T02:45:28.141Z,28.27
2023-02-12T02:48:06.621Z,26.30
2023-02-12T02:50:41.574Z,25.92
2023-02-12T02:53:16.473Z,28.92
2023-02-12T02:55:52.809Z,26.13
2023-02-12T02:58:28.977Z,29.27
2023-02-12T03:01:05.809Z,27.17
2023-02-12T03:03:45.684Z,29.58
2023-02-12T03:06:22.768Z,27.23
2023-02-12T03:08:56.994Z,28.83
2023-02-12T03:11:31.754Z,31.98
2023-02-12T03:14:08.887Z,28.50
2023-02-12T03:16:44.805Z,29.88
2023-02-12T03:19:21.721Z,30.58
2023-02-12T03:24:30.362Z,31.45
2023-02-12T03:27:06.201Z,31.58
2023-02-12T03:29:37.185Z,27.77
2023-02-12T03:32:21.035Z,30.55
2023-02-12T03:34:58.226Z,30.58
2023-02-12T03:37:34.022Z,32.17
2023-02-12T03:40:14.421Z,31.88
2023-02-12T03:42:51.991Z,29.63
2023-02-12T03:45:30.607Z,35.90
2023-02-12T03:48:11.601Z,32.83
2023-02-12T03:50:55.322Z,33.72
2023-02-12T03:53:26.422Z,30.48
2023-02-12T03:56:04.306Z,34.53
2023-02-12T03:58:38.631Z,30.92
2023-02-12T04:01:10.235Z,32.05
2023-02-12T04:03:41.831Z,32.80
2023-02-12T04:06:27.005Z,31.63
2023-02-12T04:09:00.934Z,28.63
2023-02-12T04:11:37.085Z,30.10
2023-02-12T04:14:25.822Z,32.78
2023-02-12T04:17:05.385Z,33.65
2023-02-12T04:19:46.941Z,31.33
2023-02-12T04:22:33.181Z,30.48
2023-02-12T04:25:18.981Z,30.25
2023-02-12T04:27:55.628Z,32.25
2023-02-12T04:30:31.864Z,32.47
2023-02-12T04:33:06.621Z,31.35
2023-02-12T04:35:43.585Z,30.50
2023-02-12T04:38:21.978Z,28.58
2023-02-12T04:40:53.584Z,34.10
2023-02-12T04:43:33.617Z,30.98
2023-02-12T04:46:06.258Z,29.38
2023-02-12T04:48:37.435Z,29.50
2023-02-12T04:51:08.633Z,32.20
2023-02-12T04:53:42.073Z,27.63
2023-02-12T04:56:16.091Z,28.38
2023-02-12T04:58:47.154Z,30.33
2023-02-12T05:01:18.142Z,28.05
2023-02-12T05:03:49.010Z,30.35
2023-02-12T05:06:19.836Z,29.42
2023-02-12T05:08:55.496Z,30.00
2023-02-12T05:11:26.589Z,27.55
2023-02-12T05:13:57.771Z,30.65
2023-02-12T05:16:29.085Z,29.00
2023-02-12T05:19:02.839Z,28.40
2023-02-12T05:21:33.698Z,26.10
2023-02-12T05:24:08.501Z,25.25
2023-02-12T05:26:39.629Z,29.58
2023-02-12T05:29:10.491Z,28.33
2023-02-12T05:31:41.665Z,26.00
2023-02-12T05:34:14.295Z,28.88
2023-02-12T05:36:45.174Z,28.88
2023-02-12T05:39:18.545Z,29.25
2023-02-12T05:41:49.262Z,28.35
2023-02-12T05:44:20.070Z,28.52
2023-02-12T05:46:50.959Z,25.92
2023-02-12T05:49:21.932Z,31.42
2023-02-12T05:51:52.966Z,26.80
2023-02-12T05:54:26.554Z,28.55
2023-02-12T05:56:57.365Z,26.75
2023-02-12T05:59:28.277Z,25.48
2023-02-12T06:01:59.262Z,26.95
2023-02-12T06:04:32.249Z,26.25
2023-02-12T06:07:04.109Z,28.35
2023-02-12T06:09:38.090Z,25.73
2023-02-12T06:12:09.178Z,26.02
2023-02-12T06:14:39.982Z,24.08
2023-02-12T06:17:10.918Z,23.73
2023-02-12T06:19:41.725Z,25.95
2023-02-12T06:22:12.628Z,27.50
2023-02-12T06:24:46.003Z,24.35
2023-02-12T06:27:16.771Z,24.15
2023-02-12T06:29:47.720Z,23.25
2023-02-12T06:32:18.614Z,23.48
2023-02-12T06:34:49.424Z,22.98
2023-02-12T06:37:20.259Z,23.60
2023-02-12T06:39:53.775Z,23.40
2023-02-12T06:42:24.610Z,21.58
2023-02-12T06:44:55.460Z,22.83
2023-02-12T06:47:26.210Z,21.65
2023-02-12T06:49:57.013Z,23.02
2023-02-12T06:52:27.954Z,21.60
2023-02-12T06:55:01.406Z,23.75
2023-02-12T06:57:33.103Z,29.35
2023-02-12T07:00:03.903Z,21.52
2023-02-12T07:02:36.277Z,20.75
2023-02-12T07:05:09.383Z,21.45
2023-02-12T07:07:40.387Z,21.63
2023-02-12T07:10:14.512Z,18.70
2023-02-12T07:12:45.315Z,20.65
2023-02-12T07:15:16.211Z,21.27
2023-02-12T07:17:47.010Z,21.35
2023-02-12T07:20:18.132Z,18.65
2023-02-12T07:22:48.838Z,21.05
2023-02-12T07:25:22.311Z,22.98
2023-02-12T07:27:53.148Z,21.35
2023-02-12T07:30:24.090Z,19.52
2023-02-12T07:32:54.925Z,24.70
2023-02-12T07:35:25.751Z,22.10
2023-02-12T07:37:56.683Z,22.00
2023-02-12T07:40:30.210Z,22.80
2023-02-12T07:43:00.958Z,21.98
2023-02-12T07:45:31.774Z,26.05
2023-02-12T07:48:02.599Z,27.80
2023-02-12T07:50:33.374Z,22.70
2023-02-12T07:53:04.311Z,22.33
2023-02-12T07:55:37.739Z,19.90
2023-02-12T07:58:08.481Z,22.33
2023-02-12T08:00:39.267Z,19.77
2023-02-12T08:03:10.069Z,18.20
2023-02-12T08:05:40.924Z,18.25
2023-02-12T08:08:11.690Z,17.55
2023-02-12T08:10:45.052Z,20.25
2023-02-12T08:13:15.887Z,19.58
2023-02-12T08:15:47.031Z,17.33
2023-02-12T08:18:17.915Z,17.98
2023-02-12T08:20:48.706Z,16.63
2023-02-12T08:23:19.518Z,16.38
2023-02-12T08:25:52.840Z,16.48
2023-02-12T08:28:23.848Z,18.25
2023-02-12T08:30:54.668Z,18.52
2023-02-12T08:33:25.861Z,19.20
2023-02-12T08:36:08.615Z,18.60
2023-02-12T08:38:40.302Z,20.63
2023-02-12T08:41:16.001Z,18.50
2023-02-12T08:43:47.808Z,17.80
2023-02-12T08:46:20.208Z,19.38
2023-02-12T08:48:52.563Z,20.58
2023-02-12T08:51:24.933Z,22.10
2023-02-12T08:53:57.901Z,23.25
2023-02-12T08:56:33.018Z,20.27
2023-02-12T08:59:05.631Z,19.35
2023-02-12T09:01:38.741Z,22.15
2023-02-12T09:04:10.040Z,23.45
2023-02-12T09:06:40.975Z,21.98
2023-02-12T09:09:11.824Z,24.95
2023-02-12T09:11:45.862Z,19.23
2023-02-12T09:14:19.185Z,19.90
2023-02-12T09:16:50.075Z,21.00
2023-02-12T09:19:21.908Z,22.42
2023-02-12T09:21:56.622Z,22.25
2023-02-12T09:24:28.368Z,23.15
2023-02-12T09:27:04.615Z,18.73
2023-02-12T09:29:35.466Z,21.13
2023-02-12T09:32:07.009Z,21.40
2023-02-12T09:34:38.670Z,22.73
2023-02-12T09:37:09.437Z,23.25
2023-02-12T09:39:40.962Z,20.70
2023-02-12T09:42:37.531Z,22.35
2023-02-12T09:45:19.586Z,28.38
2023-02-12T09:47:59.648Z,20.58
2023-02-12T09:50:40.901Z,23.80
2023-02-12T09:53:17.790Z,21.65
2023-02-12T09:58:27.834Z,24.33
2023-02-12T10:00:58.701Z,23.65
2023-02-12T10:03:32.641Z,28.33
2023-02-12T10:06:07.371Z,23.08
2023-02-12T10:09:04.319Z,23.08
2023-02-12T10:11:52.152Z,25.10
2023-02-12T10:14:42.151Z,22.92
2023-02-12T10:17:22.638Z,17.25
2023-02-12T10:20:10.244Z,24.42
2023-02-12T10:22:56.795Z,22.33
2023-02-12T10:25:33.220Z,23.98
2023-02-12T10:28:11.848Z,22.92
2023-02-12T10:30:51.579Z,19.23
2023-02-12T10:33:31.347Z,19.40
2023-02-12T10:36:08.089Z,21.58
2023-02-12T10:38:46.396Z,24.55
2023-02-12T10:41:19.892Z,19.77
2023-02-12T10:43:50.744Z,18.27
2023-02-12T10:46:24.273Z,20.33
2023-02-12T10:48:59.071Z,26.63
2023-02-12T10:51:44.600Z,21.65
2023-02-12T10:54:37.209Z,22.10
2023-02-12T10:57:23.975Z,18.75
2023-02-12T10:59:57.480Z,23.08
2023-02-12T11:02:33.713Z,22.13
2023-02-12T11:05:26.134Z,23.23
2023-02-12T11:07:57.731Z,21.55
2023-02-12T11:10:32.291Z,21.90
2023-02-12T11:13:04.463Z,22.33
2023-02-12T11:15:40.768Z,38.88
2023-02-12T11:18:26.421Z,38.92
2023-02-12T11:21:00.284Z,35.92
2023-02-12T11:23:33.191Z,23.88
2023-02-12T11:26:07.758Z,23.85
2023-02-12T11:28:39.855Z,31.33
2023-02-12T11:31:25.234Z,24.05
2023-02-12T11:34:19.963Z,26.73
2023-02-12T11:36:53.569Z,38.28
2023-02-12T11:39:27.067Z,25.20
2023-02-12T11:42:00.018Z,25.52
2023-02-12T11:44:35.494Z,21.83
2023-02-12T11:47:10.757Z,23.50
2023-02-12T11:49:51.668Z,22.67
2023-02-12T11:52:26.229Z,24.38
2023-02-12T11:55:00.174Z,21.95
2023-02-12T11:57:42.673Z,20.30
2023-02-12T12:00:20.156Z,23.00
2023-02-12T12:03:04.743Z,21.70
2023-02-12T12:05:41.813Z,22.27
2023-02-12T12:08:22.752Z,23.23
2023-02-12T12:10:59.869Z,23.77
2023-02-12T12:13:36.870Z,20.50
2023-02-12T12:16:25.927Z,21.33
2023-02-12T12:19:15.012Z,21.75
2023-02-12T12:21:55.520Z,20.15
2023-02-12T12:24:32.171Z,25.15
2023-02-12T12:27:14.619Z,21.02
2023-02-12T12:29:55.089Z,21.75
2023-02-12T12:32:29.674Z,23.90
2023-02-12T12:35:00.607Z,22.60
2023-02-12T12:37:41.298Z,23.67
2023-02-12T12:40:29.131Z,22.77
2023-02-12T12:43:07.472Z,20.13
2023-02-12T12:46:16.799Z,18.73
2023-02-12T12:49:17.028Z,16.85
2023-02-12T12:52:11.719Z,23.73
2023-02-12T12:55:08.259Z,18.20
2023-02-12T12:57:49.221Z,17.80
2023-02-12T13:00:31.917Z,20.30
2023-02-12T13:03:30.459Z,18.63
2023-02-12T13:06:32.487Z,16.95
2023-02-12T13:09:26.068Z,19.77
2023-02-12T13:12:18.981Z,19.85
2023-02-12T13:14:55.670Z,18.35
2023-02-12T13:17:34.442Z,14.38
2023-02-12T13:20:13.290Z,34.83
2023-02-12T13:22:53.681Z,31.90
2023-02-12T13:25:31.949Z,21.23
2023-02-12T13:28:08.340Z,18.52
2023-02-12T13:30:45.326Z,17.40
2023-02-12T13:35:51.700Z,17.05
2023-02-12T13:38:27.778Z,17.35
2023-02-12T13:41:02.884Z,21.17
2023-02-12T13:43:48.898Z,17.63
2023-02-12T13:46:28.144Z,17.77
2023-02-12T13:49:05.462Z,15.88
2023-02-12T13:51:45.836Z,14.02
2023-02-12T13:54:36.530Z,15.63
2023-02-12T13:57:12.681Z,14.60
2023-02-12T13:59:49.279Z,12.70
2023-02-12T14:02:52.852Z,14.45
2023-02-12T14:05:33.111Z,15.00
2023-02-12T14:08:08.204Z,14.45
2023-02-12T14:10:41.906Z,21.90
2023-02-12T14:13:23.615Z,27.98
2023-02-12T14:15:59.554Z,18.00
2023-02-12T14:18:35.116Z,14.13
2023-02-12T14:21:46.795Z,13.15
2023-02-12T14:24:47.321Z,14.05
2023-02-12T14:27:38.286Z,12.18
2023-02-12T14:30:32.625Z,10.82
2023-02-12T14:33:20.404Z,13.48
2023-02-12T14:35:52.941Z,11.43
2023-02-12T14:39:03.256Z,10.52
2023-02-12T14:41:38.087Z,14.10
2023-02-12T14:44:44.718Z,10.65
2023-02-12T14:47:40.479Z,12.07
2023-02-12T14:50:20.048Z,12.18
2023-02-12T14:52:56.475Z,12.40
2023-02-12T14:55:31.252Z,13.98
2023-02-12T14:58:05.233Z,34.97
2023-02-12T15:00:40.926Z,35.75
2023-02-12T15:03:22.638Z,43.42
2023-02-12T15:06:04.398Z,29.20
2023-02-12T15:08:39.936Z,21.63
2023-02-12T15:11:23.174Z,17.63
2023-02-12T15:13:58.655Z,11.45
2023-02-12T15:16:48.070Z,12.98
2023-02-12T15:19:30.744Z,14.68
2023-02-12T15:22:04.326Z,10.88
2023-02-12T15:24:35.174Z,9.88
2023-02-12T15:27:08.233Z,10.43
2023-02-12T15:29:46.157Z,10.13
2023-02-12T15:32:22.870Z,9.63
2023-02-12T15:34:55.474Z,10.68
2023-02-12T15:37:31.617Z,12.07
2023-02-12T15:40:07.294Z,12.65
2023-02-12T15:42:42.943Z,8.10
2023-02-12T15:45:26.274Z,8.73
2023-02-12T15:48:15.761Z,8.75
2023-02-12T15:50:54.619Z,8.00
2023-02-12T15:53:31.207Z,8.43
2023-02-12T15:56:03.763Z,9.70
2023-02-12T15:58:41.000Z,8.82
2023-02-12T16:01:18.204Z,9.40
2023-02-12T16:03:54.435Z,8.35
2023-02-12T16:06:26.771Z,8.05
2023-02-12T16:09:05.015Z,10.18
2023-02-12T16:11:36.792Z,8.43
2023-02-12T16:14:11.750Z,9.10
2023-02-12T16:16:48.998Z,10.30
2023-02-12T16:19:25.629Z,10.00
2023-02-12T16:22:03.711Z,8.90
2023-02-12T16:24:40.491Z,7.32
2023-02-12T16:27:23.128Z,9.85
2023-02-12T16:29:57.113Z,8.88
2023-02-12T16:32:34.240Z,10.80
2023-02-12T16:35:08.359Z,9.52
2023-02-12T16:37:51.698Z,10.85
2023-02-12T16:40:37.842Z,10.88
2023-02-12T16:43:27.405Z,10.85
2023-02-12T16:46:16.826Z,9.98
2023-02-12T16:48:51.978Z,10.35
2023-02-12T16:51:28.603Z,10.35
2023-02-12T16:54:00.829Z,13.50
2023-02-12T16:56:38.830Z,11.10
2023-02-12T16:59:12.751Z,11.52
2023-02-12T17:01:44.007Z,13.38
2023-02-12T17:04:19.267Z,15.85
2023-02-12T17:06:50.069Z,14.77
2023-02-12T17:09:21.326Z,13.10
2023-02-12T17:11:54.713Z,15.57
2023-02-12T17:14:25.506Z,15.40
2023-02-12T17:16:56.306Z,17.48
2023-02-12T17:19:27.164Z,21.83
2023-02-12T17:21:58.031Z,18.35
2023-02-12T17:24:31.418Z,31.85
2023-02-12T17:27:08.107Z,22.58
2023-02-12T17:29:38.831Z,31.70
2023-02-12T17:32:09.668Z,34.67
2023-02-12T17:34:48.421Z,95.55
2023-02-12T17:37:22.510Z,56.85
2023-02-12T17:39:53.470Z,31.50
2023-02-12T17:42:26.806Z,27.15
2023-02-12T17:44:58.034Z,21.60
2023-02-12T17:47:30.051Z,19.70
2023-02-12T17:50:02.724Z,21.63
2023-02-12T17:52:33.654Z,25.05
2023-02-12T17:55:05.175Z,24.80
2023-02-12T17:57:39.552Z,24.17
2023-02-12T18:00:13.541Z,24.52
2023-02-12T18:02:44.441Z,26.27
2023-02-12T18:05:15.479Z,26.30
2023-02-12T18:07:46.358Z,27.60
2023-02-12T18:10:17.585Z,28.40
2023-02-12T18:12:51.116Z,27.23
2023-02-12T18:15:22.286Z,23.23
2023-02-12T18:17:53.055Z,23.42
2023-02-12T18:20:24.101Z,23.58
2023-02-12T18:22:54.922Z,25.65
2023-02-12T18:25:26.136Z,32.63
2023-02-12T18:28:01.576Z,33.15
2023-02-12T18:30:32.461Z,32.90
2023-02-12T18:33:03.311Z,31.90
2023-02-12T18:35:34.190Z,38.58
2023-02-12T18:38:04.937Z,33.50
2023-02-12T18:40:35.700Z,34.10
2023-02-12T18:43:09.107Z,33.50
2023-02-12T18:45:42.616Z,33.33
2023-02-12T18:48:13.378Z,33.08
2023-02-12T18:50:44.377Z,30.05
2023-02-12T18:53:15.373Z,31.58
2023-02-12T18:55:46.756Z,32.78
2023-02-12T18:58:20.359Z,28.40
2023-02-12T19:00:51.620Z,31.33
2023-02-12T19:03:22.669Z,33.67
2023-02-12T19:05:53.549Z,49.85
2023-02-12T19:08:24.316Z,34.95
2023-02-12T19:10:55.544Z,37.70
2023-02-12T19:13:29.249Z,29.15
2023-02-12T19:16:00.395Z,37.50
2023-02-12T19:18:31.182Z,32.03
2023-02-12T19:21:01.984Z,32.67
2023-02-12T19:23:32.898Z,40.75
2023-02-12T19:26:06.495Z,38.55
2023-02-12T19:28:41.211Z,37.90
2023-02-12T19:31:16.517Z,36.60
2023-02-12T19:33:48.345Z,40.15
2023-02-12T19:36:20.985Z,36.78
2023-02-12T19:38:52.183Z,37.90
2023-02-12T19:41:25.271Z,39.78
2023-02-12T19:44:01.163Z,41.03
2023-02-12T19:46:33.905Z,40.72
2023-02-12T19:49:06.009Z,37.58
2023-02-12T19:51:39.702Z,38.58
2023-02-12T19:54:10.952Z,35.03
2023-02-12T19:56:42.190Z,36.58
2023-02-12T19:59:17.487Z,38.90
2023-02-12T20:01:49.289Z,40.67
2023-02-12T20:04:23.135Z,38.92
2023-02-12T20:06:54.021Z,43.67
2023-02-12T20:09:26.076Z,43.50
2023-02-12T20:11:57.858Z,49.75
2023-02-12T20:14:31.856Z,52.17
2023-02-12T20:17:02.933Z,49.58
2023-02-12T20:19:35.250Z,51.38
2023-02-12T20:22:06.417Z,49.33
2023-02-12T20:24:38.034Z,47.88
2023-02-12T20:27:08.842Z,34.63
2023-02-12T20:29:42.283Z,34.25
2023-02-12T20:32:13.980Z,32.28
2023-02-12T20:34:50.882Z,28.48
2023-02-12T20:37:22.301Z,23.08
2023-02-12T20:39:53.215Z,24.67
2023-02-12T20:42:24.307Z,25.00
2023-02-12T20:44:58.302Z,26.10
2023-02-12T20:47:31.791Z,25.42
2023-02-12T20:50:03.526Z,27.75
2023-02-12T20:52:35.340Z,26.17
2023-02-12T20:55:07.117Z,26.95
2023-02-12T20:57:38.007Z,25.65
2023-02-12T21:00:12.690Z,29.77
2023-02-12T21:02:44.052Z,31.42
2023-02-12T21:05:15.719Z,28.02
2023-02-12T21:07:49.947Z,23.20
2023-02-12T21:10:24.101Z,24.73
2023-02-12T21:12:54.986Z,28.35
2023-02-12T21:15:29.296Z,20.55
2023-02-12T21:18:00.595Z,22.05
2023-02-12T21:20:33.250Z,22.20
2023-02-12T21:23:05.648Z,24.35
2023-02-12T21:25:39.350Z,24.67
2023-02-12T21:28:11.251Z,24.58
2023-02-12T21:30:47.059Z,23.00
2023-02-12T21:33:19.157Z,23.63
2023-02-12T21:35:51.142Z,20.42
2023-02-12T21:38:23.092Z,21.48
2023-02-12T21:40:56.935Z,22.00
2023-02-12T21:43:27.756Z,23.50
2023-02-12T21:46:01.219Z,24.20
2023-02-12T21:48:32.227Z,25.70
2023-02-12T21:51:05.319Z,26.60
2023-02-12T21:53:36.346Z,26.70
2023-02-12T21:56:07.945Z,23.85
2023-02-12T21:58:38.764Z,28.10
2023-02-12T22:01:15.058Z,23.55
2023-02-12T22:03:47.013Z,23.08
2023-02-12T22:06:20.273Z,26.05
2023-02-12T22:08:51.373Z,29.67
2023-02-12T22:11:23.589Z,29.20
2023-02-12T22:13:54.826Z,27.45
2023-02-12T22:16:30.239Z,22.80
2023-02-12T22:19:03.030Z,27.02
2023-02-12T22:21:35.522Z,27.17
2023-02-12T22:24:07.862Z,25.10
2023-02-12T22:26:38.999Z,27.35
2023-02-12T22:29:11.777Z,26.70
2023-02-12T22:31:47.170Z,31.80
2023-02-12T22:34:21.576Z,24.67
2023-02-12T22:36:52.388Z,24.35
2023-02-12T22:39:23.310Z,25.67
2023-02-12T22:41:54.062Z,23.63
2023-02-12T22:44:25.139Z,29.02
2023-02-12T22:46:58.466Z,35.17
2023-02-12T22:49:29.329Z,28.65
2023-02-12T22:52:00.271Z,24.02
2023-02-12T22:54:31.173Z,27.67
2023-02-12T22:57:02.007Z,27.05
2023-02-12T22:59:32.813Z,23.67
2023-02-12T23:02:06.250Z,29.45
2023-02-12T23:04:37.013Z,20.95
2023-02-12T23:07:07.939Z,21.73
2023-02-12T23:09:38.872Z,21.83
2023-02-12T23:12:11.179Z,18.33
2023-02-12T23:14:41.965Z,19.05
2023-02-12T23:17:15.400Z,20.13
2023-02-12T23:19:46.206Z,19.52
2023-02-12T23:22:16.957Z,16.45
2023-02-12T23:24:47.761Z,18.15
2023-02-12T23:27:18.806Z,21.02
2023-02-12T23:29:49.526Z,20.75
2023-02-12T23:32:22.922Z,20.63
2023-02-12T23:34:53.673Z,21.40
2023-02-12T23:37:24.571Z,19.45
2023-02-12T23:39:55.266Z,19.23
2023-02-12T23:42:25.981Z,21.45
2023-02-12T23:44:57.634Z,21.70
2023-02-12T23:47:31.263Z,21.75
2023-02-12T23:50:02.014Z,22.15
2023-02-12T23:52:32.902Z,21.30
2023-02-12T23:55:03.715Z,22.67
2023-02-12T23:57:34.528Z,19.95
